sensor_id;sensor_type;location;lat;lon;timestamp;P1;durP1;ratioP1;P2;durP2;ratioP2
4885;SDS011;2457;51.788;6.136;2023-02-05T00:01:44;11.73;;;3.87;;
4885;SDS011;2457;51.788;6.136;2023-02-05T00:04:11;10.53;;;3.63;;
4885;SDS011;2457;51.788;6.136;2023-02-05T00:06:38;19.27;;;5.77;;
4885;SDS011;2457;51.788;6.136;2023-02-05T00:09:05;17.30;;;4.20;;
4885;SDS011;2457;51.788;6.136;2023-02-05T00:11:33;12.90;;;4.03;;
4885;SDS011;2457;51.788;6.136;2023-02-05T00:14:00;11.10;;;3.73;;
4885;SDS011;2457;51.788;6.136;2023-02-05T00:16:27;20.20;;;4.90;;
4885;SDS011;2457;51.788;6.136;2023-02-05T00:18:55;26.43;;;4.70;;
4885;SDS011;2457;51.788;6.136;2023-02-05T00:21:22;14.53;;;4.03;;
4885;SDS011;2457;51.788;6.136;2023-02-05T00:23:49;17.00;;;4.73;;
4885;SDS011;2457;51.788;6.136;2023-02-05T00:26:17;19.83;;;4.80;;
4885;SDS011;2457;51.788;6.136;2023-02-05T00:28:44;14.57;;;4.07;;
4885;SDS011;2457;51.788;6.136;2023-02-05T00:31:17;15.20;;;4.73;;
4885;SDS011;2457;51.788;6.136;2023-02-05T00:33:41;21.97;;;4.30;;
4885;SDS011;2457;51.788;6.136;2023-02-05T00:36:09;15.23;;;4.53;;
4885;SDS011;2457;51.788;6.136;2023-02-05T00:38:36;21.57;;;5.50;;
4885;SDS011;2457;51.788;6.136;2023-02-05T00:41:03;12.60;;;3.93;;
4885;SDS011;2457;51.788;6.136;2023-02-05T00:43:31;13.10;;;4.47;;
4885;SDS011;2457;51.788;6.136;2023-02-05T00:45:58;14.17;;;4.33;;
4885;SDS011;2457;51.788;6.136;2023-02-05T00:48:25;16.23;;;4.80;;
4885;SDS011;2457;51.788;6.136;2023-02-05T00:50:53;14.13;;;5.43;;
4885;SDS011;2457;51.788;6.136;2023-02-05T00:53:20;19.17;;;6.00;;
4885;SDS011;2457;51.788;6.136;2023-02-05T00:55:48;19.50;;;6.20;;
4885;SDS011;2457;51.788;6.136;2023-02-05T00:58:16;13.37;;;5.10;;
4885;SDS011;2457;51.788;6.136;2023-02-05T01:00:43;22.00;;;5.30;;
4885;SDS011;2457;51.788;6.136;2023-02-05T01:03:11;15.93;;;5.53;;
4885;SDS011;2457;51.788;6.136;2023-02-05T01:05:38;22.80;;;7.30;;
4885;SDS011;2457;51.788;6.136;2023-02-05T01:08:06;16.23;;;6.10;;
4885;SDS011;2457;51.788;6.136;2023-02-05T01:10:34;17.27;;;6.17;;
4885;SDS011;2457;51.788;6.136;2023-02-05T01:13:03;15.17;;;5.10;;
4885;SDS011;2457;51.788;6.136;2023-02-05T01:15:30;13.37;;;5.80;;
4885;SDS011;2457;51.788;6.136;2023-02-05T01:17:58;17.43;;;6.30;;
4885;SDS011;2457;51.788;6.136;2023-02-05T01:20:26;12.53;;;5.50;;
4885;SDS011;2457;51.788;6.136;2023-02-05T01:22:54;15.73;;;6.23;;
4885;SDS011;2457;51.788;6.136;2023-02-05T01:25:21;17.50;;;5.90;;
4885;SDS011;2457;51.788;6.136;2023-02-05T01:27:49;16.70;;;5.87;;
4885;SDS011;2457;51.788;6.136;2023-02-05T01:30:16;22.00;;;5.50;;
4885;SDS011;2457;51.788;6.136;2023-02-05T01:32:43;23.40;;;6.77;;
4885;SDS011;2457;51.788;6.136;2023-02-05T01:35:10;25.30;;;6.07;;
4885;SDS011;2457;51.788;6.136;2023-02-05T01:37:38;16.47;;;6.17;;
4885;SDS011;2457;51.788;6.136;2023-02-05T01:40:05;28.00;;;7.50;;
4885;SDS011;2457;51.788;6.136;2023-02-05T01:42:32;20.20;;;7.00;;
4885;SDS011;2457;51.788;6.136;2023-02-05T01:47:45;29.10;;;10.20;;
4885;SDS011;2457;51.788;6.136;2023-02-05T01:50:12;32.77;;;11.60;;
4885;SDS011;2457;51.788;6.136;2023-02-05T01:52:40;26.77;;;10.67;;
4885;SDS011;2457;51.788;6.136;2023-02-05T01:55:07;33.57;;;12.53;;
4885;SDS011;2457;51.788;6.136;2023-02-05T01:57:35;29.30;;;12.00;;
4885;SDS011;2457;51.788;6.136;2023-02-05T02:00:03;38.03;;;11.33;;
4885;SDS011;2457;51.788;6.136;2023-02-05T02:02:30;33.77;;;11.80;;
4885;SDS011;2457;51.788;6.136;2023-02-05T02:04:59;25.90;;;10.20;;
4885;SDS011;2457;51.788;6.136;2023-02-05T02:07:27;32.87;;;12.87;;
4885;SDS011;2457;51.788;6.136;2023-02-05T02:09:54;34.93;;;12.43;;
4885;SDS011;2457;51.788;6.136;2023-02-05T02:12:22;33.03;;;13.53;;
4885;SDS011;2457;51.788;6.136;2023-02-05T02:14:52;39.17;;;14.47;;
4885;SDS011;2457;51.788;6.136;2023-02-05T02:17:19;32.00;;;13.30;;
4885;SDS011;2457;51.788;6.136;2023-02-05T02:19:49;31.47;;;12.40;;
4885;SDS011;2457;51.788;6.136;2023-02-05T02:24:48;25.90;;;10.03;;
4885;SDS011;2457;51.788;6.136;2023-02-05T02:32:29;24.90;;;9.23;;
4885;SDS011;2457;51.788;6.136;2023-02-05T02:35:00;25.53;;;10.83;;
4885;SDS011;2457;51.788;6.136;2023-02-05T02:37:36;21.90;;;10.10;;
4885;SDS011;2457;51.788;6.136;2023-02-05T02:40:05;24.27;;;10.50;;
4885;SDS011;2457;51.788;6.136;2023-02-05T02:42:31;23.20;;;11.13;;
4885;SDS011;2457;51.788;6.136;2023-02-05T02:44:59;24.77;;;11.53;;
4885;SDS011;2457;51.788;6.136;2023-02-05T02:47:28;22.67;;;10.60;;
4885;SDS011;2457;51.788;6.136;2023-02-05T02:49:58;28.07;;;10.70;;
4885;SDS011;2457;51.788;6.136;2023-02-05T02:52:26;28.97;;;10.90;;
4885;SDS011;2457;51.788;6.136;2023-02-05T02:54:55;24.23;;;11.30;;
4885;SDS011;2457;51.788;6.136;2023-02-05T02:57:24;22.03;;;12.03;;
4885;SDS011;2457;51.788;6.136;2023-02-05T02:59:53;23.83;;;12.10;;
4885;SDS011;2457;51.788;6.136;2023-02-05T03:02:21;28.87;;;11.67;;
4885;SDS011;2457;51.788;6.136;2023-02-05T03:04:51;30.73;;;11.93;;
4885;SDS011;2457;51.788;6.136;2023-02-05T03:07:19;24.30;;;11.13;;
4885;SDS011;2457;51.788;6.136;2023-02-05T03:12:31;27.03;;;13.27;;
4885;SDS011;2457;51.788;6.136;2023-02-05T03:14:58;25.63;;;12.80;;
4885;SDS011;2457;51.788;6.136;2023-02-05T03:17:26;28.47;;;13.80;;
4885;SDS011;2457;51.788;6.136;2023-02-05T03:19:58;30.40;;;12.37;;
4885;SDS011;2457;51.788;6.136;2023-02-05T03:22:25;23.63;;;12.57;;
4885;SDS011;2457;51.788;6.136;2023-02-05T03:24:52;23.53;;;11.77;;
4885;SDS011;2457;51.788;6.136;2023-02-05T03:27:20;23.00;;;12.60;;
4885;SDS011;2457;51.788;6.136;2023-02-05T03:29:48;29.00;;;13.10;;
4885;SDS011;2457;51.788;6.136;2023-02-05T03:37:42;27.50;;;13.33;;
4885;SDS011;2457;51.788;6.136;2023-02-05T03:45:31;26.10;;;13.23;;
4885;SDS011;2457;51.788;6.136;2023-02-05T03:48:01;29.10;;;14.30;;
4885;SDS011;2457;51.788;6.136;2023-02-05T03:50:39;30.90;;;13.63;;
4885;SDS011;2457;51.788;6.136;2023-02-05T03:53:05;26.83;;;13.73;;
4885;SDS011;2457;51.788;6.136;2023-02-05T03:55:32;23.23;;;12.33;;
4885;SDS011;2457;51.788;6.136;2023-02-05T03:58:04;23.77;;;11.77;;
4885;SDS011;2457;51.788;6.136;2023-02-05T04:00:31;20.53;;;11.63;;
4885;SDS011;2457;51.788;6.136;2023-02-05T04:02:59;25.50;;;12.23;;
4885;SDS011;2457;51.788;6.136;2023-02-05T04:05:27;22.60;;;12.87;;
4885;SDS011;2457;51.788;6.136;2023-02-05T04:07:54;24.70;;;13.63;;
4885;SDS011;2457;51.788;6.136;2023-02-05T04:10:21;20.57;;;11.17;;
4885;SDS011;2457;51.788;6.136;2023-02-05T04:12:48;18.60;;;10.80;;
4885;SDS011;2457;51.788;6.136;2023-02-05T04:15:16;22.70;;;10.77;;
4885;SDS011;2457;51.788;6.136;2023-02-05T04:17:43;17.77;;;10.00;;
4885;SDS011;2457;51.788;6.136;2023-02-05T04:20:10;20.47;;;10.40;;
4885;SDS011;2457;51.788;6.136;2023-02-05T04:22:38;19.20;;;10.70;;
4885;SDS011;2457;51.788;6.136;2023-02-05T04:25:05;20.63;;;9.90;;
4885;SDS011;2457;51.788;6.136;2023-02-05T04:27:32;17.93;;;9.60;;
4885;SDS011;2457;51.788;6.136;2023-02-05T04:30:00;18.60;;;9.60;;
4885;SDS011;2457;51.788;6.136;2023-02-05T04:32:27;18.33;;;10.10;;
4885;SDS011;2457;51.788;6.136;2023-02-05T04:34:54;16.47;;;8.37;;
4885;SDS011;2457;51.788;6.136;2023-02-05T04:37:21;15.33;;;8.50;;
4885;SDS011;2457;51.788;6.136;2023-02-05T04:39:50;19.53;;;9.73;;
4885;SDS011;2457;51.788;6.136;2023-02-05T04:42:17;15.17;;;8.20;;
4885;SDS011;2457;51.788;6.136;2023-02-05T04:44:45;14.37;;;8.33;;
4885;SDS011;2457;51.788;6.136;2023-02-05T04:47:12;18.77;;;9.57;;
4885;SDS011;2457;51.788;6.136;2023-02-05T04:49:39;14.37;;;8.13;;
4885;SDS011;2457;51.788;6.136;2023-02-05T04:52:07;11.97;;;7.57;;
4885;SDS011;2457;51.788;6.136;2023-02-05T04:54:35;15.43;;;8.83;;
4885;SDS011;2457;51.788;6.136;2023-02-05T04:57:03;19.53;;;8.27;;
4885;SDS011;2457;51.788;6.136;2023-02-05T04:59:30;19.00;;;8.07;;
4885;SDS011;2457;51.788;6.136;2023-02-05T05:01:58;16.47;;;8.00;;
4885;SDS011;2457;51.788;6.136;2023-02-05T05:04:25;16.30;;;7.33;;
4885;SDS011;2457;51.788;6.136;2023-02-05T05:06:52;14.97;;;8.57;;
4885;SDS011;2457;51.788;6.136;2023-02-05T05:09:20;15.60;;;7.70;;
4885;SDS011;2457;51.788;6.136;2023-02-05T05:11:53;15.00;;;8.20;;
4885;SDS011;2457;51.788;6.136;2023-02-05T05:14:17;15.53;;;8.37;;
4885;SDS011;2457;51.788;6.136;2023-02-05T05:16:45;19.30;;;8.70;;
4885;SDS011;2457;51.788;6.136;2023-02-05T05:19:12;16.77;;;9.00;;
4885;SDS011;2457;51.788;6.136;2023-02-05T05:21:39;18.73;;;10.00;;
4885;SDS011;2457;51.788;6.136;2023-02-05T05:24:07;14.03;;;7.70;;
4885;SDS011;2457;51.788;6.136;2023-02-05T05:26:34;16.80;;;8.77;;
4885;SDS011;2457;51.788;6.136;2023-02-05T05:29:01;18.80;;;9.73;;
4885;SDS011;2457;51.788;6.136;2023-02-05T05:31:28;18.03;;;9.00;;
4885;SDS011;2457;51.788;6.136;2023-02-05T05:33:55;14.90;;;7.97;;
4885;SDS011;2457;51.788;6.136;2023-02-05T05:36:23;20.43;;;9.27;;
4885;SDS011;2457;51.788;6.136;2023-02-05T05:38:50;16.83;;;8.43;;
4885;SDS011;2457;51.788;6.136;2023-02-05T05:41:21;14.93;;;8.43;;
4885;SDS011;2457;51.788;6.136;2023-02-05T05:44:07;19.00;;;9.23;;
4885;SDS011;2457;51.788;6.136;2023-02-05T05:46:34;15.87;;;7.77;;
4885;SDS011;2457;51.788;6.136;2023-02-05T05:49:02;17.73;;;8.77;;
4885;SDS011;2457;51.788;6.136;2023-02-05T05:51:29;17.07;;;8.30;;
4885;SDS011;2457;51.788;6.136;2023-02-05T05:53:57;20.57;;;8.70;;
4885;SDS011;2457;51.788;6.136;2023-02-05T05:56:25;13.73;;;7.57;;
4885;SDS011;2457;51.788;6.136;2023-02-05T05:58:52;17.10;;;8.03;;
4885;SDS011;2457;51.788;6.136;2023-02-05T06:01:19;15.57;;;8.43;;
4885;SDS011;2457;51.788;6.136;2023-02-05T06:03:48;14.70;;;7.27;;
4885;SDS011;2457;51.788;6.136;2023-02-05T06:06:15;14.40;;;7.10;;
4885;SDS011;2457;51.788;6.136;2023-02-05T06:08:43;15.90;;;8.30;;
4885;SDS011;2457;51.788;6.136;2023-02-05T06:11:10;13.23;;;6.80;;
4885;SDS011;2457;51.788;6.136;2023-02-05T06:13:38;13.47;;;6.67;;
4885;SDS011;2457;51.788;6.136;2023-02-05T06:16:07;13.70;;;6.50;;
4885;SDS011;2457;51.788;6.136;2023-02-05T06:18:34;12.10;;;5.93;;
4885;SDS011;2457;51.788;6.136;2023-02-05T06:21:01;11.63;;;5.83;;
4885;SDS011;2457;51.788;6.136;2023-02-05T06:23:31;13.80;;;5.77;;
4885;SDS011;2457;51.788;6.136;2023-02-05T06:25:58;12.63;;;6.50;;
4885;SDS011;2457;51.788;6.136;2023-02-05T06:28:26;9.77;;;6.13;;
4885;SDS011;2457;51.788;6.136;2023-02-05T06:30:53;14.57;;;5.63;;
4885;SDS011;2457;51.788;6.136;2023-02-05T06:33:20;10.70;;;5.87;;
4885;SDS011;2457;51.788;6.136;2023-02-05T06:35:47;7.80;;;4.80;;
4885;SDS011;2457;51.788;6.136;2023-02-05T06:38:15;8.57;;;4.77;;
4885;SDS011;2457;51.788;6.136;2023-02-05T06:40:42;10.80;;;4.33;;
4885;SDS011;2457;51.788;6.136;2023-02-05T06:43:09;8.90;;;4.10;;
4885;SDS011;2457;51.788;6.136;2023-02-05T06:45:36;8.30;;;4.47;;
4885;SDS011;2457;51.788;6.136;2023-02-05T06:48:04;7.70;;;3.90;;
4885;SDS011;2457;51.788;6.136;2023-02-05T06:50:31;8.47;;;4.10;;
4885;SDS011;2457;51.788;6.136;2023-02-05T06:52:58;8.47;;;4.20;;
4885;SDS011;2457;51.788;6.136;2023-02-05T06:55:26;6.20;;;3.30;;
4885;SDS011;2457;51.788;6.136;2023-02-05T06:57:53;7.80;;;3.90;;
4885;SDS011;2457;51.788;6.136;2023-02-05T07:00:20;6.60;;;3.33;;
4885;SDS011;2457;51.788;6.136;2023-02-05T07:02:47;7.00;;;3.00;;
4885;SDS011;2457;51.788;6.136;2023-02-05T07:05:15;3.80;;;1.60;;
4885;SDS011;2457;51.788;6.136;2023-02-05T07:07:42;3.90;;;1.57;;
4885;SDS011;2457;51.788;6.136;2023-02-05T07:10:09;4.40;;;1.30;;
4885;SDS011;2457;51.788;6.136;2023-02-05T07:12:36;8.83;;;1.50;;
4885;SDS011;2457;51.788;6.136;2023-02-05T07:15:04;4.87;;;1.10;;
4885;SDS011;2457;51.788;6.136;2023-02-05T07:17:31;4.53;;;1.20;;
4885;SDS011;2457;51.788;6.136;2023-02-05T07:19:58;6.37;;;1.37;;
4885;SDS011;2457;51.788;6.136;2023-02-05T07:22:26;3.50;;;1.20;;
4885;SDS011;2457;51.788;6.136;2023-02-05T07:24:53;3.33;;;0.90;;
4885;SDS011;2457;51.788;6.136;2023-02-05T07:27:20;4.37;;;1.40;;
4885;SDS011;2457;51.788;6.136;2023-02-05T07:29:48;6.03;;;1.30;;
4885;SDS011;2457;51.788;6.136;2023-02-05T07:32:15;6.17;;;1.13;;
4885;SDS011;2457;51.788;6.136;2023-02-05T07:34:42;5.63;;;1.20;;
4885;SDS011;2457;51.788;6.136;2023-02-05T07:37:10;5.90;;;1.43;;
4885;SDS011;2457;51.788;6.136;2023-02-05T07:39:39;4.90;;;1.10;;
4885;SDS011;2457;51.788;6.136;2023-02-05T07:42:06;5.43;;;1.07;;
4885;SDS011;2457;51.788;6.136;2023-02-05T07:44:34;4.63;;;1.17;;
4885;SDS011;2457;51.788;6.136;2023-02-05T07:47:01;4.93;;;1.40;;
4885;SDS011;2457;51.788;6.136;2023-02-05T07:49:28;4.27;;;1.03;;
4885;SDS011;2457;51.788;6.136;2023-02-05T07:51:55;7.33;;;1.47;;
4885;SDS011;2457;51.788;6.136;2023-02-05T07:54:23;4.83;;;1.33;;
4885;SDS011;2457;51.788;6.136;2023-02-05T07:56:50;3.87;;;1.00;;
4885;SDS011;2457;51.788;6.136;2023-02-05T07:59:18;4.60;;;1.50;;
4885;SDS011;2457;51.788;6.136;2023-02-05T08:01:45;6.20;;;1.50;;
4885;SDS011;2457;51.788;6.136;2023-02-05T08:04:12;7.23;;;1.20;;
4885;SDS011;2457;51.788;6.136;2023-02-05T08:06:39;6.33;;;1.40;;
4885;SDS011;2457;51.788;6.136;2023-02-05T08:09:07;5.07;;;1.27;;
4885;SDS011;2457;51.788;6.136;2023-02-05T08:11:34;6.87;;;1.90;;
4885;SDS011;2457;51.788;6.136;2023-02-05T08:14:01;5.40;;;1.60;;
4885;SDS011;2457;51.788;6.136;2023-02-05T08:16:28;7.17;;;1.70;;
4885;SDS011;2457;51.788;6.136;2023-02-05T08:18:56;4.30;;;1.30;;
4885;SDS011;2457;51.788;6.136;2023-02-05T08:21:23;4.97;;;1.40;;
4885;SDS011;2457;51.788;6.136;2023-02-05T08:23:50;10.53;;;1.93;;
4885;SDS011;2457;51.788;6.136;2023-02-05T08:26:17;10.33;;;1.50;;
4885;SDS011;2457;51.788;6.136;2023-02-05T08:28:45;9.57;;;2.13;;
4885;SDS011;2457;51.788;6.136;2023-02-05T08:31:13;8.20;;;1.93;;
4885;SDS011;2457;51.788;6.136;2023-02-05T08:33:41;6.03;;;1.50;;
4885;SDS011;2457;51.788;6.136;2023-02-05T08:36:08;7.50;;;1.73;;
4885;SDS011;2457;51.788;6.136;2023-02-05T08:38:36;13.37;;;1.97;;
4885;SDS011;2457;51.788;6.136;2023-02-05T08:41:09;6.50;;;1.30;;
4885;SDS011;2457;51.788;6.136;2023-02-05T08:43:41;9.30;;;1.60;;
4885;SDS011;2457;51.788;6.136;2023-02-05T08:46:09;8.77;;;2.13;;
4885;SDS011;2457;51.788;6.136;2023-02-05T08:48:37;6.93;;;1.93;;
4885;SDS011;2457;51.788;6.136;2023-02-05T08:51:04;4.50;;;1.23;;
4885;SDS011;2457;51.788;6.136;2023-02-05T08:53:31;12.03;;;2.30;;
4885;SDS011;2457;51.788;6.136;2023-02-05T08:56:00;4.43;;;1.30;;
4885;SDS011;2457;51.788;6.136;2023-02-05T08:58:27;10.80;;;1.60;;
4885;SDS011;2457;51.788;6.136;2023-02-05T09:01:09;9.80;;;1.87;;
4885;SDS011;2457;51.788;6.136;2023-02-05T09:03:36;7.70;;;2.07;;
4885;SDS011;2457;51.788;6.136;2023-02-05T09:06:06;7.00;;;2.30;;
4885;SDS011;2457;51.788;6.136;2023-02-05T09:08:34;4.87;;;1.60;;
4885;SDS011;2457;51.788;6.136;2023-02-05T09:11:01;8.57;;;2.07;;
4885;SDS011;2457;51.788;6.136;2023-02-05T09:13:29;8.40;;;2.00;;
4885;SDS011;2457;51.788;6.136;2023-02-05T09:15:56;8.50;;;1.33;;
4885;SDS011;2457;51.788;6.136;2023-02-05T09:18:23;11.80;;;1.70;;
4885;SDS011;2457;51.788;6.136;2023-02-05T09:20:51;7.30;;;1.67;;
4885;SDS011;2457;51.788;6.136;2023-02-05T09:23:19;6.97;;;1.63;;
4885;SDS011;2457;51.788;6.136;2023-02-05T09:25:47;9.67;;;2.17;;
4885;SDS011;2457;51.788;6.136;2023-02-05T09:28:14;6.90;;;1.73;;
4885;SDS011;2457;51.788;6.136;2023-02-05T09:30:43;7.60;;;1.73;;
4885;SDS011;2457;51.788;6.136;2023-02-05T09:33:10;11.23;;;2.07;;
4885;SDS011;2457;51.788;6.136;2023-02-05T09:35:38;6.17;;;1.60;;
4885;SDS011;2457;51.788;6.136;2023-02-05T09:38:05;9.10;;;1.90;;
4885;SDS011;2457;51.788;6.136;2023-02-05T09:40:39;6.70;;;1.70;;
4885;SDS011;2457;51.788;6.136;2023-02-05T09:43:13;7.17;;;2.07;;
4885;SDS011;2457;51.788;6.136;2023-02-05T09:50:47;9.50;;;2.47;;
4885;SDS011;2457;51.788;6.136;2023-02-05T09:53:16;6.33;;;2.00;;
4885;SDS011;2457;51.788;6.136;2023-02-05T09:55:43;10.50;;;2.40;;
4885;SDS011;2457;51.788;6.136;2023-02-05T09:58:16;10.00;;;1.93;;
4885;SDS011;2457;51.788;6.136;2023-02-05T10:00:47;7.50;;;2.30;;
4885;SDS011;2457;51.788;6.136;2023-02-05T10:03:29;12.03;;;2.90;;
4885;SDS011;2457;51.788;6.136;2023-02-05T10:08:59;9.53;;;2.50;;
4885;SDS011;2457;51.788;6.136;2023-02-05T10:11:24;11.10;;;2.70;;
4885;SDS011;2457;51.788;6.136;2023-02-05T10:13:52;17.47;;;3.57;;
4885;SDS011;2457;51.788;6.136;2023-02-05T10:16:27;14.30;;;3.20;;
4885;SDS011;2457;51.788;6.136;2023-02-05T10:22:00;10.17;;;2.43;;
4885;SDS011;2457;51.788;6.136;2023-02-05T10:26:59;10.50;;;2.20;;
4885;SDS011;2457;51.788;6.136;2023-02-05T10:29:25;13.50;;;2.73;;
4885;SDS011;2457;51.788;6.136;2023-02-05T10:34:44;13.57;;;2.57;;
4885;SDS011;2457;51.788;6.136;2023-02-05T10:37:11;14.67;;;2.90;;
4885;SDS011;2457;51.788;6.136;2023-02-05T10:39:34;15.60;;;2.97;;
4885;SDS011;2457;51.788;6.136;2023-02-05T10:42:16;11.80;;;2.67;;
4885;SDS011;2457;51.788;6.136;2023-02-05T10:44:41;12.97;;;2.20;;
4885;SDS011;2457;51.788;6.136;2023-02-05T10:47:31;15.17;;;3.10;;
4885;SDS011;2457;51.788;6.136;2023-02-05T10:49:50;9.20;;;2.10;;
4885;SDS011;2457;51.788;6.136;2023-02-05T10:52:18;7.83;;;2.03;;
4885;SDS011;2457;51.788;6.136;2023-02-05T10:54:45;11.17;;;2.47;;
4885;SDS011;2457;51.788;6.136;2023-02-05T10:57:14;9.37;;;2.27;;
4885;SDS011;2457;51.788;6.136;2023-02-05T10:59:48;12.73;;;2.70;;
4885;SDS011;2457;51.788;6.136;2023-02-05T11:02:11;8.83;;;2.90;;
4885;SDS011;2457;51.788;6.136;2023-02-05T11:04:40;10.00;;;2.93;;
4885;SDS011;2457;51.788;6.136;2023-02-05T11:07:13;10.87;;;2.40;;
4885;SDS011;2457;51.788;6.136;2023-02-05T11:09:41;15.40;;;2.50;;
4885;SDS011;2457;51.788;6.136;2023-02-05T11:12:16;8.63;;;1.93;;
4885;SDS011;2457;51.788;6.136;2023-02-05T11:14:44;12.40;;;2.20;;
4885;SDS011;2457;51.788;6.136;2023-02-05T11:19:56;10.60;;;2.00;;
4885;SDS011;2457;51.788;6.136;2023-02-05T11:22:26;12.43;;;2.77;;
4885;SDS011;2457;51.788;6.136;2023-02-05T11:25:03;13.33;;;3.30;;
4885;SDS011;2457;51.788;6.136;2023-02-05T11:27:26;9.93;;;2.10;;
4885;SDS011;2457;51.788;6.136;2023-02-05T11:29:57;13.27;;;2.90;;
4885;SDS011;2457;51.788;6.136;2023-02-05T11:32:32;11.40;;;3.00;;
4885;SDS011;2457;51.788;6.136;2023-02-05T11:35:07;9.60;;;2.43;;
4885;SDS011;2457;51.788;6.136;2023-02-05T11:37:37;9.23;;;2.57;;
4885;SDS011;2457;51.788;6.136;2023-02-05T11:40:04;10.07;;;2.20;;
4885;SDS011;2457;51.788;6.136;2023-02-05T11:42:31;12.83;;;2.60;;
4885;SDS011;2457;51.788;6.136;2023-02-05T11:44:59;7.37;;;2.30;;
4885;SDS011;2457;51.788;6.136;2023-02-05T11:47:27;7.07;;;1.70;;
4885;SDS011;2457;51.788;6.136;2023-02-05T11:49:55;5.60;;;2.00;;
4885;SDS011;2457;51.788;6.136;2023-02-05T11:52:32;4.40;;;1.43;;
4885;SDS011;2457;51.788;6.136;2023-02-05T11:54:55;9.10;;;1.90;;
4885;SDS011;2457;51.788;6.136;2023-02-05T11:57:30;6.30;;;2.07;;
4885;SDS011;2457;51.788;6.136;2023-02-05T11:59:58;9.07;;;2.10;;
4885;SDS011;2457;51.788;6.136;2023-02-05T12:05:03;9.60;;;1.77;;
4885;SDS011;2457;51.788;6.136;2023-02-05T12:07:28;12.70;;;2.73;;
4885;SDS011;2457;51.788;6.136;2023-02-05T12:09:56;13.43;;;2.30;;
4885;SDS011;2457;51.788;6.136;2023-02-05T12:12:39;8.30;;;2.10;;
4885;SDS011;2457;51.788;6.136;2023-02-05T12:15:11;14.07;;;2.30;;
4885;SDS011;2457;51.788;6.136;2023-02-05T12:17:39;10.67;;;2.57;;
4885;SDS011;2457;51.788;6.136;2023-02-05T12:20:21;8.73;;;2.37;;
4885;SDS011;2457;51.788;6.136;2023-02-05T12:25:35;15.03;;;2.23;;
4885;SDS011;2457;51.788;6.136;2023-02-05T12:30:38;13.93;;;3.40;;
4885;SDS011;2457;51.788;6.136;2023-02-05T12:38:24;10.43;;;2.70;;
4885;SDS011;2457;51.788;6.136;2023-02-05T12:48:55;22.23;;;3.90;;
4885;SDS011;2457;51.788;6.136;2023-02-05T12:51:26;14.70;;;3.10;;
4885;SDS011;2457;51.788;6.136;2023-02-05T12:53:58;11.77;;;2.20;;
4885;SDS011;2457;51.788;6.136;2023-02-05T12:58:57;14.97;;;2.53;;
4885;SDS011;2457;51.788;6.136;2023-02-05T13:01:23;13.53;;;3.60;;
4885;SDS011;2457;51.788;6.136;2023-02-05T13:03:56;20.70;;;3.00;;
4885;SDS011;2457;51.788;6.136;2023-02-05T13:06:35;12.70;;;3.00;;
4885;SDS011;2457;51.788;6.136;2023-02-05T13:09:03;11.93;;;2.87;;
4885;SDS011;2457;51.788;6.136;2023-02-05T13:11:31;17.30;;;3.90;;
4885;SDS011;2457;51.788;6.136;2023-02-05T13:14:07;11.87;;;2.40;;
4885;SDS011;2457;51.788;6.136;2023-02-05T13:16:39;16.00;;;2.77;;
4885;SDS011;2457;51.788;6.136;2023-02-05T13:19:25;8.87;;;3.00;;
4885;SDS011;2457;51.788;6.136;2023-02-05T13:21:33;10.97;;;2.80;;
4885;SDS011;2457;51.788;6.136;2023-02-05T13:24:22;13.00;;;3.57;;
4885;SDS011;2457;51.788;6.136;2023-02-05T13:27:23;9.10;;;2.10;;
4885;SDS011;2457;51.788;6.136;2023-02-05T13:30:05;10.33;;;2.70;;
4885;SDS011;2457;51.788;6.136;2023-02-05T13:32:33;12.13;;;3.10;;
4885;SDS011;2457;51.788;6.136;2023-02-05T13:35:01;11.07;;;3.00;;
4885;SDS011;2457;51.788;6.136;2023-02-05T13:37:35;13.50;;;2.57;;
4885;SDS011;2457;51.788;6.136;2023-02-05T13:40:20;19.00;;;2.73;;
4885;SDS011;2457;51.788;6.136;2023-02-05T13:42:52;18.93;;;3.30;;
4885;SDS011;2457;51.788;6.136;2023-02-05T13:45:39;12.60;;;3.17;;
4885;SDS011;2457;51.788;6.136;2023-02-05T13:53:27;14.90;;;3.30;;
4885;SDS011;2457;51.788;6.136;2023-02-05T13:58:35;13.57;;;3.00;;
4885;SDS011;2457;51.788;6.136;2023-02-05T14:01:12;15.40;;;2.83;;
4885;SDS011;2457;51.788;6.136;2023-02-05T14:03:33;13.83;;;2.83;;
4885;SDS011;2457;51.788;6.136;2023-02-05T14:08:38;11.33;;;3.40;;
4885;SDS011;2457;51.788;6.136;2023-02-05T14:11:05;14.43;;;3.13;;
4885;SDS011;2457;51.788;6.136;2023-02-05T14:13:33;12.83;;;2.70;;
4885;SDS011;2457;51.788;6.136;2023-02-05T14:18:47;15.17;;;3.50;;
4885;SDS011;2457;51.788;6.136;2023-02-05T14:23:58;14.63;;;3.50;;
4885;SDS011;2457;51.788;6.136;2023-02-05T14:26:42;9.73;;;2.20;;
4885;SDS011;2457;51.788;6.136;2023-02-05T14:31:55;14.83;;;3.03;;
4885;SDS011;2457;51.788;6.136;2023-02-05T14:34:26;10.30;;;3.27;;
4885;SDS011;2457;51.788;6.136;2023-02-05T14:36:54;14.97;;;2.97;;
4885;SDS011;2457;51.788;6.136;2023-02-05T14:39:28;12.90;;;3.10;;
4885;SDS011;2457;51.788;6.136;2023-02-05T14:41:59;16.10;;;3.17;;
4885;SDS011;2457;51.788;6.136;2023-02-05T14:44:28;10.13;;;2.80;;
4885;SDS011;2457;51.788;6.136;2023-02-05T14:46:57;12.87;;;3.17;;
4885;SDS011;2457;51.788;6.136;2023-02-05T14:49:26;11.43;;;2.53;;
4885;SDS011;2457;51.788;6.136;2023-02-05T14:51:55;11.90;;;3.10;;
4885;SDS011;2457;51.788;6.136;2023-02-05T14:54:30;9.20;;;2.83;;
4885;SDS011;2457;51.788;6.136;2023-02-05T14:57:06;11.33;;;2.30;;
4885;SDS011;2457;51.788;6.136;2023-02-05T15:01:52;8.53;;;2.17;;
4885;SDS011;2457;51.788;6.136;2023-02-05T15:04:23;12.43;;;2.70;;
4885;SDS011;2457;51.788;6.136;2023-02-05T15:06:51;12.27;;;2.53;;
4885;SDS011;2457;51.788;6.136;2023-02-05T15:09:20;8.23;;;1.87;;
4885;SDS011;2457;51.788;6.136;2023-02-05T15:14:37;8.50;;;2.43;;
4885;SDS011;2457;51.788;6.136;2023-02-05T15:19:39;19.30;;;2.90;;
4885;SDS011;2457;51.788;6.136;2023-02-05T15:22:11;7.70;;;2.33;;
4885;SDS011;2457;51.788;6.136;2023-02-05T15:24:37;12.83;;;3.40;;
4885;SDS011;2457;51.788;6.136;2023-02-05T15:27:06;10.80;;;3.00;;
4885;SDS011;2457;51.788;6.136;2023-02-05T15:29:41;12.30;;;3.03;;
4885;SDS011;2457;51.788;6.136;2023-02-05T15:32:18;14.73;;;2.43;;
4885;SDS011;2457;51.788;6.136;2023-02-05T15:37:20;9.73;;;2.60;;
4885;SDS011;2457;51.788;6.136;2023-02-05T15:39:50;11.90;;;2.10;;
4885;SDS011;2457;51.788;6.136;2023-02-05T15:42:19;9.50;;;2.80;;
4885;SDS011;2457;51.788;6.136;2023-02-05T15:44:47;13.83;;;2.90;;
4885;SDS011;2457;51.788;6.136;2023-02-05T15:47:20;9.60;;;2.27;;
4885;SDS011;2457;51.788;6.136;2023-02-05T15:49:44;9.80;;;2.67;;
4885;SDS011;2457;51.788;6.136;2023-02-05T15:52:22;15.67;;;2.90;;
4885;SDS011;2457;51.788;6.136;2023-02-05T15:54:52;11.50;;;2.73;;
4885;SDS011;2457;51.788;6.136;2023-02-05T15:57:21;14.90;;;2.77;;
4885;SDS011;2457;51.788;6.136;2023-02-05T15:59:49;15.10;;;2.50;;
4885;SDS011;2457;51.788;6.136;2023-02-05T16:02:24;10.20;;;2.30;;
4885;SDS011;2457;51.788;6.136;2023-02-05T16:05:00;8.03;;;2.47;;
4885;SDS011;2457;51.788;6.136;2023-02-05T16:07:33;13.03;;;2.80;;
4885;SDS011;2457;51.788;6.136;2023-02-05T16:09:58;15.33;;;2.87;;
4885;SDS011;2457;51.788;6.136;2023-02-05T16:12:26;14.30;;;2.70;;
4885;SDS011;2457;51.788;6.136;2023-02-05T16:15:00;13.57;;;3.27;;
4885;SDS011;2457;51.788;6.136;2023-02-05T16:17:38;12.10;;;3.90;;
4885;SDS011;2457;51.788;6.136;2023-02-05T16:20:10;13.60;;;2.57;;
4885;SDS011;2457;51.788;6.136;2023-02-05T16:25:05;12.67;;;3.03;;
4885;SDS011;2457;51.788;6.136;2023-02-05T16:27:39;13.03;;;2.90;;
4885;SDS011;2457;51.788;6.136;2023-02-05T16:30:06;15.07;;;3.07;;
4885;SDS011;2457;51.788;6.136;2023-02-05T16:32:41;8.83;;;2.40;;
4885;SDS011;2457;51.788;6.136;2023-02-05T16:35:05;11.50;;;2.80;;
4885;SDS011;2457;51.788;6.136;2023-02-05T16:37:34;10.87;;;2.93;;
4885;SDS011;2457;51.788;6.136;2023-02-05T16:40:02;13.17;;;2.87;;
4885;SDS011;2457;51.788;6.136;2023-02-05T16:42:37;8.80;;;2.70;;
4885;SDS011;2457;51.788;6.136;2023-02-05T16:45:07;10.70;;;2.83;;
4885;SDS011;2457;51.788;6.136;2023-02-05T16:47:32;13.10;;;3.30;;
4885;SDS011;2457;51.788;6.136;2023-02-05T16:49:59;9.83;;;2.40;;
4885;SDS011;2457;51.788;6.136;2023-02-05T16:52:29;8.30;;;2.50;;